sensor_id;sensor_type;location;lat;lon;timestamp;P1;durP1;ratioP1;P2;durP2;ratioP2
40595;SDS011;26304;48.794;9.820;2023-06-10T00:00:56;4.80;;;4.50;;
40595;SDS011;26304;48.794;9.820;2023-06-10T00:06:41;4.65;;;4.35;;
40595;SDS011;26304;48.794;9.820;2023-06-10T00:12:24;4.93;;;4.57;;
40595;SDS011;26304;48.794;9.820;2023-06-10T00:18:07;5.25;;;4.85;;
40595;SDS011;26304;48.794;9.820;2023-06-10T00:23:52;5.18;;;4.78;;
40595;SDS011;26304;48.794;9.820;2023-06-10T00:29:36;5.22;;;4.82;;
40595;SDS011;26304;48.794;9.820;2023-06-10T00:35:19;4.53;;;4.18;;
40595;SDS011;26304;48.794;9.820;2023-06-10T00:41:03;4.43;;;4.13;;
40595;SDS011;26304;48.794;9.820;2023-06-10T00:46:46;4.25;;;3.95;;
40595;SDS011;26304;48.794;9.820;2023-06-10T00:52:29;4.50;;;4.20;;
40595;SDS011;26304;48.794;9.820;2023-06-10T00:58:13;5.00;;;4.47;;
40595;SDS011;26304;48.794;9.820;2023-06-10T01:03:57;4.90;;;4.40;;
40595;SDS011;26304;48.794;9.820;2023-06-10T01:09:41;4.50;;;4.20;;
40595;SDS011;26304;48.794;9.820;2023-06-10T01:15:33;4.40;;;4.10;;
40595;SDS011;26304;48.794;9.820;2023-06-10T01:21:19;4.35;;;3.95;;
40595;SDS011;26304;48.794;9.820;2023-06-10T01:27:05;4.45;;;4.05;;
40595;SDS011;26304;48.794;9.820;2023-06-10T01:32:53;4.30;;;4.00;;
40595;SDS011;26304;48.794;9.820;2023-06-10T01:38:39;4.55;;;4.25;;
40595;SDS011;26304;48.794;9.820;2023-06-10T01:44:24;4.53;;;4.22;;
40595;SDS011;26304;48.794;9.820;2023-06-10T01:50:07;4.15;;;3.88;;
40595;SDS011;26304;48.794;9.820;2023-06-10T01:55:51;4.07;;;3.78;;
40595;SDS011;26304;48.794;9.820;2023-06-10T02:01:33;4.60;;;4.22;;
40595;SDS011;26304;48.794;9.820;2023-06-10T02:07:16;4.43;;;4.13;;
40595;SDS011;26304;48.794;9.820;2023-06-10T02:13:02;4.53;;;4.13;;
40595;SDS011;26304;48.794;9.820;2023-06-10T02:18:45;5.07;;;4.68;;
40595;SDS011;26304;48.794;9.820;2023-06-10T02:24:27;5.18;;;4.68;;
40595;SDS011;26304;48.794;9.820;2023-06-10T02:30:12;4.57;;;4.18;;
40595;SDS011;26304;48.794;9.820;2023-06-10T02:35:55;4.60;;;4.30;;
40595;SDS011;26304;48.794;9.820;2023-06-10T02:41:37;5.38;;;4.90;;
40595;SDS011;26304;48.794;9.820;2023-06-10T02:47:21;4.65;;;4.30;;
40595;SDS011;26304;48.794;9.820;2023-06-10T02:53:04;4.20;;;3.90;;
40595;SDS011;26304;48.794;9.820;2023-06-10T02:58:46;4.85;;;4.50;;
40595;SDS011;26304;48.794;9.820;2023-06-10T03:04:30;5.32;;;4.93;;
40595;SDS011;26304;48.794;9.820;2023-06-10T03:10:12;5.18;;;4.78;;
40595;SDS011;26304;48.794;9.820;2023-06-10T03:15:57;5.10;;;4.75;;
40595;SDS011;26304;48.794;9.820;2023-06-10T03:21:43;4.90;;;4.50;;
40595;SDS011;26304;48.794;9.820;2023-06-10T03:27:26;5.07;;;4.43;;
40595;SDS011;26304;48.794;9.820;2023-06-10T03:33:10;4.97;;;4.57;;
40595;SDS011;26304;48.794;9.820;2023-06-10T03:38:54;5.20;;;4.72;;
40595;SDS011;26304;48.794;9.820;2023-06-10T03:44:37;5.57;;;5.18;;
40595;SDS011;26304;48.794;9.820;2023-06-10T03:50:21;5.85;;;5.45;;
40595;SDS011;26304;48.794;9.820;2023-06-10T03:56:08;5.30;;;4.90;;
40595;SDS011;26304;48.794;9.820;2023-06-10T04:01:50;5.13;;;4.82;;
40595;SDS011;26304;48.794;9.820;2023-06-10T04:07:33;4.75;;;4.45;;
40595;SDS011;26304;48.794;9.820;2023-06-10T04:13:16;5.15;;;4.75;;
40595;SDS011;26304;48.794;9.820;2023-06-10T04:19:00;5.60;;;5.07;;
40595;SDS011;26304;48.794;9.820;2023-06-10T04:24:44;5.35;;;4.95;;
40595;SDS011;26304;48.794;9.820;2023-06-10T04:30:28;4.60;;;4.30;;
40595;SDS011;26304;48.794;9.820;2023-06-10T04:36:13;4.60;;;4.20;;
40595;SDS011;26304;48.794;9.820;2023-06-10T04:41:55;4.25;;;3.85;;
40595;SDS011;26304;48.794;9.820;2023-06-10T04:47:40;4.15;;;3.85;;
40595;SDS011;26304;48.794;9.820;2023-06-10T04:53:24;4.55;;;4.25;;
40595;SDS011;26304;48.794;9.820;2023-06-10T04:59:07;4.47;;;4.18;;
40595;SDS011;26304;48.794;9.820;2023-06-10T05:04:50;4.72;;;4.35;;
40595;SDS011;26304;48.794;9.820;2023-06-10T05:10:37;4.82;;;4.53;;
40595;SDS011;26304;48.794;9.820;2023-06-10T05:16:20;4.65;;;4.35;;
40595;SDS011;26304;48.794;9.820;2023-06-10T05:22:11;8.25;;;5.05;;
40595;SDS011;26304;48.794;9.820;2023-06-10T05:27:54;4.93;;;4.53;;
40595;SDS011;26304;48.794;9.820;2023-06-10T05:33:36;6.90;;;5.10;;
40595;SDS011;26304;48.794;9.820;2023-06-10T05:39:20;5.07;;;4.60;;
40595;SDS011;26304;48.794;9.820;2023-06-10T05:45:05;4.03;;;3.72;;
40595;SDS011;26304;48.794;9.820;2023-06-10T05:50:48;4.72;;;4.32;;
40595;SDS011;26304;48.794;9.820;2023-06-10T05:56:34;4.10;;;3.80;;
40595;SDS011;26304;48.794;9.820;2023-06-10T06:02:16;4.25;;;3.95;;
40595;SDS011;26304;48.794;9.820;2023-06-10T06:07:58;4.07;;;3.78;;
40595;SDS011;26304;48.794;9.820;2023-06-10T06:13:42;3.97;;;3.67;;
40595;SDS011;26304;48.794;9.820;2023-06-10T06:19:24;4.00;;;3.67;;
40595;SDS011;26304;48.794;9.820;2023-06-10T06:25:07;3.67;;;3.47;;
40595;SDS011;26304;48.794;9.820;2023-06-10T06:30:51;4.35;;;3.95;;
40595;SDS011;26304;48.794;9.820;2023-06-10T06:36:36;4.13;;;3.83;;
40595;SDS011;26304;48.794;9.820;2023-06-10T06:42:18;3.42;;;3.22;;
40595;SDS011;26304;48.794;9.820;2023-06-10T06:48:04;3.75;;;3.45;;
40595;SDS011;26304;48.794;9.820;2023-06-10T06:53:47;3.53;;;3.30;;
40595;SDS011;26304;48.794;9.820;2023-06-10T06:59:31;4.03;;;3.53;;
40595;SDS011;26304;48.794;9.820;2023-06-10T07:05:15;4.03;;;3.75;;
40595;SDS011;26304;48.794;9.820;2023-06-10T07:10:57;3.90;;;3.70;;
40595;SDS011;26304;48.794;9.820;2023-06-10T07:16:39;3.90;;;3.63;;
40595;SDS011;26304;48.794;9.820;2023-06-10T07:22:23;3.55;;;3.30;;
40595;SDS011;26304;48.794;9.820;2023-06-10T07:28:06;3.53;;;3.28;;
40595;SDS011;26304;48.794;9.820;2023-06-10T07:33:48;3.63;;;3.42;;
40595;SDS011;26304;48.794;9.820;2023-06-10T07:39:32;3.67;;;3.38;;
40595;SDS011;26304;48.794;9.820;2023-06-10T07:45:14;4.35;;;3.67;;
40595;SDS011;26304;48.794;9.820;2023-06-10T07:50:56;4.25;;;3.95;;
40595;SDS011;26304;48.794;9.820;2023-06-10T07:56:40;4.22;;;3.40;;
40595;SDS011;26304;48.794;9.820;2023-06-10T08:02:23;3.95;;;3.55;;
40595;SDS011;26304;48.794;9.820;2023-06-10T08:08:05;3.45;;;3.25;;
40595;SDS011;26304;48.794;9.820;2023-06-10T08:13:49;3.40;;;3.20;;
40595;SDS011;26304;48.794;9.820;2023-06-10T08:19:31;3.20;;;2.95;;
40595;SDS011;26304;48.794;9.820;2023-06-10T08:25:18;3.58;;;3.22;;
40595;SDS011;26304;48.794;9.820;2023-06-10T08:31:03;3.33;;;3.13;;
40595;SDS011;26304;48.794;9.820;2023-06-10T08:36:46;3.60;;;3.30;;
40595;SDS011;26304;48.794;9.820;2023-06-10T08:42:29;3.22;;;3.03;;
40595;SDS011;26304;48.794;9.820;2023-06-10T08:48:21;3.85;;;3.42;;
40595;SDS011;26304;48.794;9.820;2023-06-10T08:54:14;3.53;;;3.33;;
40595;SDS011;26304;48.794;9.820;2023-06-10T09:00:00;3.75;;;3.50;;
40595;SDS011;26304;48.794;9.820;2023-06-10T09:05:45;3.85;;;3.58;;
40595;SDS011;26304;48.794;9.820;2023-06-10T09:11:29;3.80;;;3.60;;
40595;SDS011;26304;48.794;9.820;2023-06-10T09:17:16;3.53;;;3.33;;
40595;SDS011;26304;48.794;9.820;2023-06-10T09:23:00;3.25;;;3.05;;
40595;SDS011;26304;48.794;9.820;2023-06-10T09:28:47;3.80;;;3.40;;
40595;SDS011;26304;48.794;9.820;2023-06-10T09:34:32;3.90;;;3.60;;
40595;SDS011;26304;48.794;9.820;2023-06-10T09:40:15;4.00;;;3.70;;
40595;SDS011;26304;48.794;9.820;2023-06-10T09:45:58;3.88;;;3.58;;
40595;SDS011;26304;48.794;9.820;2023-06-10T09:51:48;7.97;;;3.72;;
40595;SDS011;26304;48.794;9.820;2023-06-10T09:57:34;5.50;;;4.53;;
40595;SDS011;26304;48.794;9.820;2023-06-10T10:03:22;5.80;;;4.35;;
40595;SDS011;26304;48.794;9.820;2023-06-10T10:09:05;5.70;;;4.05;;
40595;SDS011;26304;48.794;9.820;2023-06-10T10:14:51;4.38;;;3.97;;
40595;SDS011;26304;48.794;9.820;2023-06-10T10:20:41;6.07;;;4.32;;
40595;SDS011;26304;48.794;9.820;2023-06-10T10:26:29;5.15;;;4.65;;
40595;SDS011;26304;48.794;9.820;2023-06-10T10:32:14;4.00;;;3.60;;
40595;SDS011;26304;48.794;9.820;2023-06-10T10:38:06;5.00;;;4.40;;
40595;SDS011;26304;48.794;9.820;2023-06-10T10:43:50;4.50;;;4.10;;
40595;SDS011;26304;48.794;9.820;2023-06-10T10:49:37;4.80;;;4.20;;
40595;SDS011;26304;48.794;9.820;2023-06-10T10:55:21;5.20;;;4.07;;
40595;SDS011;26304;48.794;9.820;2023-06-10T11:01:10;4.47;;;3.70;;
40595;SDS011;26304;48.794;9.820;2023-06-10T11:06:55;5.05;;;4.15;;
40595;SDS011;26304;48.794;9.820;2023-06-10T11:12:56;5.07;;;4.20;;
40595;SDS011;26304;48.794;9.820;2023-06-10T11:18:41;4.40;;;4.00;;
40595;SDS011;26304;48.794;9.820;2023-06-10T11:24:40;5.88;;;4.25;;
40595;SDS011;26304;48.794;9.820;2023-06-10T11:30:25;5.40;;;4.10;;
40595;SDS011;26304;48.794;9.820;2023-06-10T11:36:23;4.03;;;3.70;;
40595;SDS011;26304;48.794;9.820;2023-06-10T11:42:18;3.90;;;3.60;;
40595;SDS011;26304;48.794;9.820;2023-06-10T11:48:03;4.45;;;3.47;;
40595;SDS011;26304;48.794;9.820;2023-06-10T11:53:58;3.80;;;3.50;;
40595;SDS011;26304;48.794;9.820;2023-06-10T11:59:55;3.80;;;3.50;;
40595;SDS011;26304;48.794;9.820;2023-06-10T12:06:00;5.30;;;3.80;;
40595;SDS011;26304;48.794;9.820;2023-06-10T12:11:56;4.07;;;3.78;;
40595;SDS011;26304;48.794;9.820;2023-06-10T12:17:42;3.63;;;3.35;;
40595;SDS011;26304;48.794;9.820;2023-06-10T12:23:25;3.92;;;3.25;;
40595;SDS011;26304;48.794;9.820;2023-06-10T12:29:17;3.65;;;3.35;;
40595;SDS011;26304;48.794;9.820;2023-06-10T12:35:06;3.75;;;3.45;;
40595;SDS011;26304;48.794;9.820;2023-06-10T12:40:50;3.90;;;3.60;;
40595;SDS011;26304;48.794;9.820;2023-06-10T12:46:35;3.83;;;3.53;;
40595;SDS011;26304;48.794;9.820;2023-06-10T12:52:20;3.65;;;3.30;;
40595;SDS011;26304;48.794;9.820;2023-06-10T12:58:02;3.22;;;3.03;;
40595;SDS011;26304;48.794;9.820;2023-06-10T13:03:45;4.53;;;3.40;;
40595;SDS011;26304;48.794;9.820;2023-06-10T13:09:29;3.72;;;3.42;;
40595;SDS011;26304;48.794;9.820;2023-06-10T13:15:11;3.40;;;2.95;;
40595;SDS011;26304;48.794;9.820;2023-06-10T13:20:54;3.78;;;3.47;;
40595;SDS011;26304;48.794;9.820;2023-06-10T13:26:38;4.13;;;3.78;;
40595;SDS011;26304;48.794;9.820;2023-06-10T13:32:21;4.07;;;3.67;;
40595;SDS011;26304;48.794;9.820;2023-06-10T13:38:03;3.78;;;3.47;;
40595;SDS011;26304;48.794;9.820;2023-06-10T13:43:47;3.97;;;3.60;;
40595;SDS011;26304;48.794;9.820;2023-06-10T13:49:29;4.35;;;4.05;;
40595;SDS011;26304;48.794;9.820;2023-06-10T13:55:12;3.78;;;3.42;;
40595;SDS011;26304;48.794;9.820;2023-06-10T14:00:55;3.92;;;3.58;;
40595;SDS011;26304;48.794;9.820;2023-06-10T14:06:39;3.80;;;3.50;;
40595;SDS011;26304;48.794;9.820;2023-06-10T14:12:22;3.65;;;3.35;;
40595;SDS011;26304;48.794;9.820;2023-06-10T14:18:05;3.85;;;3.55;;
40595;SDS011;26304;48.794;9.820;2023-06-10T14:23:48;3.35;;;3.05;;
40595;SDS011;26304;48.794;9.820;2023-06-10T14:29:32;3.47;;;3.28;;
40595;SDS011;26304;48.794;9.820;2023-06-10T14:35:17;3.67;;;3.38;;
40595;SDS011;26304;48.794;9.820;2023-06-10T14:40:59;3.72;;;3.35;;
40595;SDS011;26304;48.794;9.820;2023-06-10T14:46:43;3.33;;;3.00;;
40595;SDS011;26304;48.794;9.820;2023-06-10T14:52:26;4.07;;;3.78;;
40595;SDS011;26304;48.794;9.820;2023-06-10T14:58:09;3.85;;;3.40;;
40595;SDS011;26304;48.794;9.820;2023-06-10T15:03:51;2.92;;;2.78;;
40595;SDS011;26304;48.794;9.820;2023-06-10T15:09:35;3.15;;;2.95;;
40595;SDS011;26304;48.794;9.820;2023-06-10T15:15:17;3.40;;;3.20;;
40595;SDS011;26304;48.794;9.820;2023-06-10T15:21:00;3.72;;;3.40;;
40595;SDS011;26304;48.794;9.820;2023-06-10T15:26:43;3.10;;;2.90;;
40595;SDS011;26304;48.794;9.820;2023-06-10T15:32:26;3.15;;;2.95;;
40595;SDS011;26304;48.794;9.820;2023-06-10T15:38:08;3.55;;;3.35;;
40595;SDS011;26304;48.794;9.820;2023-06-10T15:43:52;3.92;;;3.63;;
40595;SDS011;26304;48.794;9.820;2023-06-10T15:49:34;3.65;;;3.35;;
40595;SDS011;26304;48.794;9.820;2023-06-10T15:55:17;3.78;;;3.58;;
40595;SDS011;26304;48.794;9.820;2023-06-10T16:01:01;3.42;;;3.13;;
40595;SDS011;26304;48.794;9.820;2023-06-10T16:06:43;5.38;;;3.20;;
40595;SDS011;26304;48.794;9.820;2023-06-10T16:12:26;3.78;;;3.47;;
40595;SDS011;26304;48.794;9.820;2023-06-10T16:18:10;4.57;;;3.15;;
40595;SDS011;26304;48.794;9.820;2023-06-10T16:23:52;7.75;;;3.92;;
40595;SDS011;26304;48.794;9.820;2023-06-10T16:29:35;5.53;;;3.70;;
40595;SDS011;26304;48.794;9.820;2023-06-10T16:35:19;4.20;;;3.50;;
40595;SDS011;26304;48.794;9.820;2023-06-10T16:41:01;3.92;;;3.45;;
40595;SDS011;26304;48.794;9.820;2023-06-10T16:46:43;6.07;;;3.53;;
40595;SDS011;26304;48.794;9.820;2023-06-10T16:52:27;6.68;;;3.70;;
40595;SDS011;26304;48.794;9.820;2023-06-10T16:58:09;4.18;;;3.60;;
40595;SDS011;26304;48.794;9.820;2023-06-10T17:03:52;4.40;;;3.92;;
40595;SDS011;26304;48.794;9.820;2023-06-10T17:09:36;3.63;;;3.25;;
40595;SDS011;26304;48.794;9.820;2023-06-10T17:15:18;4.32;;;3.97;;
40595;SDS011;26304;48.794;9.820;2023-06-10T17:21:00;4.30;;;3.42;;
40595;SDS011;26304;48.794;9.820;2023-06-10T17:26:44;4.43;;;3.63;;
40595;SDS011;26304;48.794;9.820;2023-06-10T17:32:27;3.65;;;3.35;;
40595;SDS011;26304;48.794;9.820;2023-06-10T17:38:10;3.65;;;3.28;;
40595;SDS011;26304;48.794;9.820;2023-06-10T17:43:54;4.88;;;3.08;;
40595;SDS011;26304;48.794;9.820;2023-06-10T17:49:36;3.50;;;3.20;;
40595;SDS011;26304;48.794;9.820;2023-06-10T17:55:19;9.43;;;4.90;;
40595;SDS011;26304;48.794;9.820;2023-06-10T18:01:04;8.60;;;4.72;;
40595;SDS011;26304;48.794;9.820;2023-06-10T18:06:46;13.75;;;7.32;;
40595;SDS011;26304;48.794;9.820;2023-06-10T18:12:29;17.30;;;7.43;;
40595;SDS011;26304;48.794;9.820;2023-06-10T18:18:12;14.65;;;6.50;;
40595;SDS011;26304;48.794;9.820;2023-06-10T18:23:55;8.52;;;5.82;;
40595;SDS011;26304;48.794;9.820;2023-06-10T18:29:37;14.13;;;6.20;;
40595;SDS011;26304;48.794;9.820;2023-06-10T18:35:21;7.85;;;5.88;;
40595;SDS011;26304;48.794;9.820;2023-06-10T18:41:03;10.68;;;6.05;;
40595;SDS011;26304;48.794;9.820;2023-06-10T18:46:47;10.93;;;6.35;;
40595;SDS011;26304;48.794;9.820;2023-06-10T18:52:30;11.75;;;5.95;;
40595;SDS011;26304;48.794;9.820;2023-06-10T18:58:13;5.18;;;4.68;;
40595;SDS011;26304;48.794;9.820;2023-06-10T19:03:55;6.30;;;4.60;;
40595;SDS011;26304;48.794;9.820;2023-06-10T19:09:39;4.00;;;3.70;;
40595;SDS011;26304;48.794;9.820;2023-06-10T19:15:21;4.65;;;3.95;;
40595;SDS011;26304;48.794;9.820;2023-06-10T19:21:04;4.00;;;3.80;;
40595;SDS011;26304;48.794;9.820;2023-06-10T19:26:47;3.90;;;3.58;;
40595;SDS011;26304;48.794;9.820;2023-06-10T19:32:30;4.97;;;3.78;;
40595;SDS011;26304;48.794;9.820;2023-06-10T19:38:12;3.63;;;3.35;;
40595;SDS011;26304;48.794;9.820;2023-06-10T19:43:56;3.50;;;3.30;;
40595;SDS011;26304;48.794;9.820;2023-06-10T19:49:38;4.30;;;3.40;;
40595;SDS011;26304;48.794;9.820;2023-06-10T19:55:21;3.55;;;3.35;;
40595;SDS011;26304;48.794;9.820;2023-06-10T20:01:05;3.50;;;3.30;;
40595;SDS011;26304;48.794;9.820;2023-06-10T20:06:47;4.20;;;3.90;;
40595;SDS011;26304;48.794;9.820;2023-06-10T20:12:29;3.75;;;3.47;;
40595;SDS011;26304;48.794;9.820;2023-06-10T20:18:13;3.85;;;3.55;;
40595;SDS011;26304;48.794;9.820;2023-06-10T20:23:56;4.18;;;3.88;;
40595;SDS011;26304;48.794;9.820;2023-06-10T20:29:38;4.03;;;3.72;;
40595;SDS011;26304;48.794;9.820;2023-06-10T20:35:22;3.78;;;3.53;;
40595;SDS011;26304;48.794;9.820;2023-06-10T20:41:04;4.22;;;3.95;;
40595;SDS011;26304;48.794;9.820;2023-06-10T20:46:47;4.55;;;4.25;;
40595;SDS011;26304;48.794;9.820;2023-06-10T20:52:32;4.63;;;4.32;;
40595;SDS011;26304;48.794;9.820;2023-06-10T20:58:14;4.05;;;3.85;;
40595;SDS011;26304;48.794;9.820;2023-06-10T21:03:56;4.05;;;3.75;;
40595;SDS011;26304;48.794;9.820;2023-06-10T21:09:40;4.70;;;4.25;;
40595;SDS011;26304;48.794;9.820;2023-06-10T21:15:25;4.55;;;4.25;;
40595;SDS011;26304;48.794;9.820;2023-06-10T21:21:07;4.60;;;4.30;;
40595;SDS011;26304;48.794;9.820;2023-06-10T21:26:51;4.50;;;4.20;;
40595;SDS011;26304;48.794;9.820;2023-06-10T21:32:34;4.45;;;4.15;;
40595;SDS011;26304;48.794;9.820;2023-06-10T21:38:17;5.18;;;4.72;;
40595;SDS011;26304;48.794;9.820;2023-06-10T21:44:00;4.63;;;4.32;;
40595;SDS011;26304;48.794;9.820;2023-06-10T21:49:43;5.20;;;4.75;;
40595;SDS011;26304;48.794;9.820;2023-06-10T21:55:25;5.13;;;4.72;;
40595;SDS011;26304;48.794;9.820;2023-06-10T22:01:09;5.53;;;5.13;;
40595;SDS011;26304;48.794;9.820;2023-06-10T22:06:52;5.97;;;5.55;;
40595;SDS011;26304;48.794;9.820;2023-06-10T22:12:34;5.22;;;4.72;;
40595;SDS011;26304;48.794;9.820;2023-06-10T22:18:18;5.28;;;4.90;;
40595;SDS011;26304;48.794;9.820;2023-06-10T22:24:00;4.88;;;4.57;;
40595;SDS011;26304;48.794;9.820;2023-06-10T22:29:43;5.30;;;4.93;;
40595;SDS011;26304;48.794;9.820;2023-06-10T22:35:27;5.07;;;4.75;;
40595;SDS011;26304;48.794;9.820;2023-06-10T22:41:09;5.47;;;5.15;;
40595;SDS011;26304;48.794;9.820;2023-06-10T22:46:51;5.13;;;4.82;;
40595;SDS011;26304;48.794;9.820;2023-06-10T22:52:35;5.43;;;5.00;;
40595;SDS011;26304;48.794;9.820;2023-06-10T22:58:18;4.22;;;3.92;;
40595;SDS011;26304;48.794;9.820;2023-06-10T23:04:00;4.65;;;4.35;;
40595;SDS011;26304;48.794;9.820;2023-06-10T23:09:44;4.70;;;4.40;;
40595;SDS011;26304;48.794;9.820;2023-06-10T23:15:26;4.72;;;4.43;;
40595;SDS011;26304;48.794;9.820;2023-06-10T23:21:08;4.50;;;4.20;;
40595;SDS011;26304;48.794;9.820;2023-06-10T23:26:52;4.55;;;4.25;;
40595;SDS011;26304;48.794;9.820;2023-06-10T23:32:35;4.20;;;3.90;;
40595;SDS011;26304;48.794;9.820;2023-06-10T23:38:17;4.63;;;4.28;;
40595;SDS011;26304;48.794;9.820;2023-06-10T23:44:01;4.65;;;4.35;;
40595;SDS011;26304;48.794;9.820;2023-06-10T23:49:44;4.72;;;4.38;;
40595;SDS011;26304;48.794;9.820;2023-06-10T23:55:27;4.50;;;4.20;;
